sensor_id;sensor_type;location;lat;lon;timestamp;P1;durP1;ratioP1;P2;durP2;ratioP2
23400;SDS011;11873;49.300;8.920;2023-06-24T00:03:23;3.87;;;3.47;;
23400;SDS011;11873;49.300;8.920;2023-06-24T00:08:24;4.07;;;3.20;;
23400;SDS011;11873;49.300;8.920;2023-06-24T00:13:24;4.13;;;3.30;;
23400;SDS011;11873;49.300;8.920;2023-06-24T00:18:24;4.77;;;3.43;;
23400;SDS011;11873;49.300;8.920;2023-06-24T00:23:24;3.73;;;3.40;;
23400;SDS011;11873;49.300;8.920;2023-06-24T00:28:24;5.83;;;3.30;;
23400;SDS011;11873;49.300;8.920;2023-06-24T00:33:24;4.10;;;3.17;;
23400;SDS011;11873;49.300;8.920;2023-06-24T00:38:25;5.33;;;3.10;;
23400;SDS011;11873;49.300;8.920;2023-06-24T00:43:25;3.10;;;2.73;;
23400;SDS011;11873;49.300;8.920;2023-06-24T00:48:25;3.60;;;3.20;;
23400;SDS011;11873;49.300;8.920;2023-06-24T00:53:25;3.97;;;3.60;;
23400;SDS011;11873;49.300;8.920;2023-06-24T00:58:25;4.40;;;3.20;;
23400;SDS011;11873;49.300;8.920;2023-06-24T01:03:25;5.13;;;3.30;;
23400;SDS011;11873;49.300;8.920;2023-06-24T01:08:26;3.93;;;3.50;;
23400;SDS011;11873;49.300;8.920;2023-06-24T01:13:26;3.50;;;3.20;;
23400;SDS011;11873;49.300;8.920;2023-06-24T01:18:32;4.10;;;3.70;;
23400;SDS011;11873;49.300;8.920;2023-06-24T01:23:52;3.73;;;3.40;;
23400;SDS011;11873;49.300;8.920;2023-06-24T01:29:06;5.33;;;3.47;;
23400;SDS011;11873;49.300;8.920;2023-06-24T01:34:14;4.03;;;3.37;;
23400;SDS011;11873;49.300;8.920;2023-06-24T01:39:15;3.63;;;3.03;;
23400;SDS011;11873;49.300;8.920;2023-06-24T01:44:16;3.17;;;2.87;;
23400;SDS011;11873;49.300;8.920;2023-06-24T01:49:17;3.60;;;3.10;;
23400;SDS011;11873;49.300;8.920;2023-06-24T01:54:19;3.33;;;2.90;;
23400;SDS011;11873;49.300;8.920;2023-06-24T01:59:20;3.57;;;3.17;;
23400;SDS011;11873;49.300;8.920;2023-06-24T02:04:21;3.27;;;2.97;;
23400;SDS011;11873;49.300;8.920;2023-06-24T02:09:23;5.47;;;3.37;;
23400;SDS011;11873;49.300;8.920;2023-06-24T02:14:25;4.93;;;3.37;;
23400;SDS011;11873;49.300;8.920;2023-06-24T02:19:27;3.30;;;3.00;;
23400;SDS011;11873;49.300;8.920;2023-06-24T02:24:29;8.07;;;3.63;;
23400;SDS011;11873;49.300;8.920;2023-06-24T02:29:29;4.70;;;3.40;;
23400;SDS011;11873;49.300;8.920;2023-06-24T02:34:30;7.10;;;3.50;;
23400;SDS011;11873;49.300;8.920;2023-06-24T02:39:30;5.87;;;3.37;;
23400;SDS011;11873;49.300;8.920;2023-06-24T02:44:30;5.50;;;3.70;;
23400;SDS011;11873;49.300;8.920;2023-06-24T02:49:32;3.50;;;3.17;;
23400;SDS011;11873;49.300;8.920;2023-06-24T02:54:32;4.63;;;3.87;;
23400;SDS011;11873;49.300;8.920;2023-06-24T02:59:33;3.30;;;3.00;;
23400;SDS011;11873;49.300;8.920;2023-06-24T03:04:33;3.33;;;3.03;;
23400;SDS011;11873;49.300;8.920;2023-06-24T03:09:34;5.43;;;3.07;;
23400;SDS011;11873;49.300;8.920;2023-06-24T03:14:34;4.90;;;3.33;;
23400;SDS011;11873;49.300;8.920;2023-06-24T03:19:34;4.10;;;3.17;;
23400;SDS011;11873;49.300;8.920;2023-06-24T03:24:35;5.67;;;3.30;;
23400;SDS011;11873;49.300;8.920;2023-06-24T03:29:35;3.83;;;3.33;;
23400;SDS011;11873;49.300;8.920;2023-06-24T03:34:35;7.97;;;3.57;;
23400;SDS011;11873;49.300;8.920;2023-06-24T03:39:35;3.37;;;2.83;;
23400;SDS011;11873;49.300;8.920;2023-06-24T03:44:35;4.47;;;3.40;;
23400;SDS011;11873;49.300;8.920;2023-06-24T03:49:36;4.20;;;3.20;;
23400;SDS011;11873;49.300;8.920;2023-06-24T03:54:36;5.97;;;3.27;;
23400;SDS011;11873;49.300;8.920;2023-06-24T03:59:36;4.50;;;3.10;;
23400;SDS011;11873;49.300;8.920;2023-06-24T04:04:36;5.97;;;3.20;;
23400;SDS011;11873;49.300;8.920;2023-06-24T04:09:37;3.87;;;3.47;;
23400;SDS011;11873;49.300;8.920;2023-06-24T04:14:38;3.97;;;3.37;;
23400;SDS011;11873;49.300;8.920;2023-06-24T04:19:38;5.63;;;3.30;;
23400;SDS011;11873;49.300;8.920;2023-06-24T04:24:38;4.63;;;3.40;;
23400;SDS011;11873;49.300;8.920;2023-06-24T04:29:38;5.10;;;3.50;;
23400;SDS011;11873;49.300;8.920;2023-06-24T04:34:38;6.23;;;3.20;;
23400;SDS011;11873;49.300;8.920;2023-06-24T04:39:39;4.87;;;3.40;;
23400;SDS011;11873;49.300;8.920;2023-06-24T04:44:39;7.00;;;3.20;;
23400;SDS011;11873;49.300;8.920;2023-06-24T04:49:39;6.23;;;4.17;;
23400;SDS011;11873;49.300;8.920;2023-06-24T04:54:39;6.87;;;3.87;;
23400;SDS011;11873;49.300;8.920;2023-06-24T04:59:39;5.43;;;4.33;;
23400;SDS011;11873;49.300;8.920;2023-06-24T05:04:39;10.30;;;4.60;;
23400;SDS011;11873;49.300;8.920;2023-06-24T05:09:40;7.00;;;4.37;;
23400;SDS011;11873;49.300;8.920;2023-06-24T05:14:40;5.73;;;3.90;;
23400;SDS011;11873;49.300;8.920;2023-06-24T05:19:40;5.27;;;3.90;;
23400;SDS011;11873;49.300;8.920;2023-06-24T05:24:40;7.10;;;4.20;;
23400;SDS011;11873;49.300;8.920;2023-06-24T05:29:40;4.67;;;3.97;;
23400;SDS011;11873;49.300;8.920;2023-06-24T05:34:40;4.93;;;3.53;;
23400;SDS011;11873;49.300;8.920;2023-06-24T05:39:41;5.50;;;3.03;;
23400;SDS011;11873;49.300;8.920;2023-06-24T05:44:42;5.93;;;3.50;;
23400;SDS011;11873;49.300;8.920;2023-06-24T05:49:42;3.37;;;3.07;;
23400;SDS011;11873;49.300;8.920;2023-06-24T05:54:42;5.20;;;4.00;;
23400;SDS011;11873;49.300;8.920;2023-06-24T05:59:42;3.93;;;3.20;;
23400;SDS011;11873;49.300;8.920;2023-06-24T06:04:43;9.40;;;3.17;;
23400;SDS011;11873;49.300;8.920;2023-06-24T06:09:43;6.03;;;3.50;;
23400;SDS011;11873;49.300;8.920;2023-06-24T06:14:43;3.73;;;3.10;;
23400;SDS011;11873;49.300;8.920;2023-06-24T06:19:43;3.87;;;3.53;;
23400;SDS011;11873;49.300;8.920;2023-06-24T06:24:43;3.77;;;2.93;;
23400;SDS011;11873;49.300;8.920;2023-06-24T06:29:43;4.57;;;3.27;;
23400;SDS011;11873;49.300;8.920;2023-06-24T06:34:44;4.00;;;3.67;;
23400;SDS011;11873;49.300;8.920;2023-06-24T06:39:44;4.93;;;3.83;;
23400;SDS011;11873;49.300;8.920;2023-06-24T06:44:44;4.33;;;3.30;;
23400;SDS011;11873;49.300;8.920;2023-06-24T06:49:44;4.70;;;4.23;;
23400;SDS011;11873;49.300;8.920;2023-06-24T06:54:44;4.13;;;3.67;;
23400;SDS011;11873;49.300;8.920;2023-06-24T06:59:44;3.87;;;3.33;;
23400;SDS011;11873;49.300;8.920;2023-06-24T07:04:45;4.23;;;3.33;;
23400;SDS011;11873;49.300;8.920;2023-06-24T07:09:45;4.33;;;3.13;;
23400;SDS011;11873;49.300;8.920;2023-06-24T07:14:45;6.33;;;4.00;;
23400;SDS011;11873;49.300;8.920;2023-06-24T07:19:45;4.23;;;3.60;;
23400;SDS011;11873;49.300;8.920;2023-06-24T07:24:45;4.80;;;3.87;;
23400;SDS011;11873;49.300;8.920;2023-06-24T07:29:45;4.87;;;4.10;;
23400;SDS011;11873;49.300;8.920;2023-06-24T07:34:46;5.90;;;4.13;;
23400;SDS011;11873;49.300;8.920;2023-06-24T07:39:46;3.77;;;3.37;;
23400;SDS011;11873;49.300;8.920;2023-06-24T07:44:46;5.03;;;3.57;;
23400;SDS011;11873;49.300;8.920;2023-06-24T07:49:46;5.00;;;3.50;;
23400;SDS011;11873;49.300;8.920;2023-06-24T07:54:47;4.40;;;3.67;;
23400;SDS011;11873;49.300;8.920;2023-06-24T07:59:47;4.37;;;3.97;;
23400;SDS011;11873;49.300;8.920;2023-06-24T08:04:47;4.60;;;3.67;;
23400;SDS011;11873;49.300;8.920;2023-06-24T08:09:47;3.80;;;3.40;;
23400;SDS011;11873;49.300;8.920;2023-06-24T08:14:47;4.97;;;3.73;;
23400;SDS011;11873;49.300;8.920;2023-06-24T08:19:48;3.50;;;3.20;;
23400;SDS011;11873;49.300;8.920;2023-06-24T08:24:48;3.67;;;3.37;;
23400;SDS011;11873;49.300;8.920;2023-06-24T08:29:48;3.83;;;3.53;;
23400;SDS011;11873;49.300;8.920;2023-06-24T08:34:48;3.67;;;3.30;;
23400;SDS011;11873;49.300;8.920;2023-06-24T08:39:49;3.37;;;2.53;;
23400;SDS011;11873;49.300;8.920;2023-06-24T08:44:49;3.80;;;2.90;;
23400;SDS011;11873;49.300;8.920;2023-06-24T08:49:51;3.17;;;2.80;;
23400;SDS011;11873;49.300;8.920;2023-06-24T08:54:52;3.30;;;3.00;;
23400;SDS011;11873;49.300;8.920;2023-06-24T08:59:55;3.27;;;2.97;;
23400;SDS011;11873;49.300;8.920;2023-06-24T09:04:55;2.95;;;2.75;;
23400;SDS011;11873;49.300;8.920;2023-06-24T09:09:55;3.50;;;3.10;;
23400;SDS011;11873;49.300;8.920;2023-06-24T09:14:55;3.70;;;3.40;;
23400;SDS011;11873;49.300;8.920;2023-06-24T09:20:03;4.10;;;3.37;;
23400;SDS011;11873;49.300;8.920;2023-06-24T09:25:03;4.60;;;2.80;;
23400;SDS011;11873;49.300;8.920;2023-06-24T09:30:24;3.92;;;3.60;;
23400;SDS011;11873;49.300;8.920;2023-06-24T09:35:24;3.90;;;3.50;;
23400;SDS011;11873;49.300;8.920;2023-06-24T09:40:25;4.33;;;3.63;;
23400;SDS011;11873;49.300;8.920;2023-06-24T09:45:26;3.47;;;3.17;;
23400;SDS011;11873;49.300;8.920;2023-06-24T09:50:26;3.17;;;2.87;;
23400;SDS011;11873;49.300;8.920;2023-06-24T09:55:26;3.05;;;2.75;;
23400;SDS011;11873;49.300;8.920;2023-06-24T10:00:27;5.25;;;2.97;;
23400;SDS011;11873;49.300;8.920;2023-06-24T10:05:28;3.80;;;3.50;;
23400;SDS011;11873;49.300;8.920;2023-06-24T10:10:28;2.95;;;2.65;;
23400;SDS011;11873;49.300;8.920;2023-06-24T10:15:28;5.82;;;3.30;;
23400;SDS011;11873;49.300;8.920;2023-06-24T10:20:29;3.50;;;3.25;;
23400;SDS011;11873;49.300;8.920;2023-06-24T10:25:35;4.65;;;3.37;;
23400;SDS011;11873;49.300;8.920;2023-06-24T10:30:35;3.30;;;3.00;;
23400;SDS011;11873;49.300;8.920;2023-06-24T10:35:38;2.30;;;2.20;;
23400;SDS011;11873;49.300;8.920;2023-06-24T10:40:42;3.17;;;2.83;;
23400;SDS011;11873;49.300;8.920;2023-06-24T10:45:48;3.23;;;2.90;;
23400;SDS011;11873;49.300;8.920;2023-06-24T10:50:48;2.93;;;2.73;;
23400;SDS011;11873;49.300;8.920;2023-06-24T10:55:48;2.57;;;2.37;;
23400;SDS011;11873;49.300;8.920;2023-06-24T11:00:49;2.90;;;2.60;;
23400;SDS011;11873;49.300;8.920;2023-06-24T11:05:49;2.93;;;2.73;;
23400;SDS011;11873;49.300;8.920;2023-06-24T11:10:49;2.42;;;2.22;;
23400;SDS011;11873;49.300;8.920;2023-06-24T11:15:49;2.47;;;2.27;;
23400;SDS011;11873;49.300;8.920;2023-06-24T11:20:53;2.80;;;2.60;;
23400;SDS011;11873;49.300;8.920;2023-06-24T11:25:53;2.00;;;1.90;;
23400;SDS011;11873;49.300;8.920;2023-06-24T11:30:53;2.93;;;2.60;;
23400;SDS011;11873;49.300;8.920;2023-06-24T11:35:53;3.55;;;3.25;;
23400;SDS011;11873;49.300;8.920;2023-06-24T11:40:57;2.93;;;2.30;;
23400;SDS011;11873;49.300;8.920;2023-06-24T11:45:57;2.27;;;2.13;;
23400;SDS011;11873;49.300;8.920;2023-06-24T11:50:57;3.10;;;2.40;;
23400;SDS011;11873;49.300;8.920;2023-06-24T11:55:57;2.80;;;2.60;;
23400;SDS011;11873;49.300;8.920;2023-06-24T12:00:57;3.17;;;2.87;;
23400;SDS011;11873;49.300;8.920;2023-06-24T12:05:58;2.60;;;2.27;;
23400;SDS011;11873;49.300;8.920;2023-06-24T12:10:58;3.53;;;2.53;;
23400;SDS011;11873;49.300;8.920;2023-06-24T12:15:58;3.00;;;2.80;;
23400;SDS011;11873;49.300;8.920;2023-06-24T12:20:58;3.20;;;2.70;;
23400;SDS011;11873;49.300;8.920;2023-06-24T12:25:58;3.53;;;3.17;;
23400;SDS011;11873;49.300;8.920;2023-06-24T12:30:58;3.33;;;3.03;;
23400;SDS011;11873;49.300;8.920;2023-06-24T12:35:59;3.47;;;2.87;;
23400;SDS011;11873;49.300;8.920;2023-06-24T12:40:59;2.97;;;2.67;;
23400;SDS011;11873;49.300;8.920;2023-06-24T12:45:59;3.50;;;3.20;;
23400;SDS011;11873;49.300;8.920;2023-06-24T12:50:59;3.13;;;2.83;;
23400;SDS011;11873;49.300;8.920;2023-06-24T12:55:59;2.87;;;2.67;;
23400;SDS011;11873;49.300;8.920;2023-06-24T13:00:59;3.70;;;3.10;;
23400;SDS011;11873;49.300;8.920;2023-06-24T13:06:00;3.23;;;2.93;;
23400;SDS011;11873;49.300;8.920;2023-06-24T13:11:00;3.27;;;2.97;;
23400;SDS011;11873;49.300;8.920;2023-06-24T13:16:00;3.27;;;2.97;;
23400;SDS011;11873;49.300;8.920;2023-06-24T13:21:03;2.63;;;2.43;;
23400;SDS011;11873;49.300;8.920;2023-06-24T13:26:03;3.30;;;2.83;;
23400;SDS011;11873;49.300;8.920;2023-06-24T13:31:03;2.63;;;2.43;;
23400;SDS011;11873;49.300;8.920;2023-06-24T13:36:04;3.23;;;2.93;;
23400;SDS011;11873;49.300;8.920;2023-06-24T13:41:04;4.60;;;2.60;;
23400;SDS011;11873;49.300;8.920;2023-06-24T13:46:05;3.40;;;3.10;;
23400;SDS011;11873;49.300;8.920;2023-06-24T13:51:05;3.30;;;2.97;;
23400;SDS011;11873;49.300;8.920;2023-06-24T13:56:05;2.53;;;2.33;;
23400;SDS011;11873;49.300;8.920;2023-06-24T14:01:05;2.60;;;2.40;;
23400;SDS011;11873;49.300;8.920;2023-06-24T14:06:05;3.27;;;2.97;;
23400;SDS011;11873;49.300;8.920;2023-06-24T14:11:06;2.60;;;2.40;;
23400;SDS011;11873;49.300;8.920;2023-06-24T14:16:06;2.77;;;2.57;;
23400;SDS011;11873;49.300;8.920;2023-06-24T14:21:06;3.00;;;2.50;;
23400;SDS011;11873;49.300;8.920;2023-06-24T14:26:06;4.97;;;4.50;;
23400;SDS011;11873;49.300;8.920;2023-06-24T14:31:07;4.07;;;2.83;;
23400;SDS011;11873;49.300;8.920;2023-06-24T14:36:07;3.00;;;2.70;;
23400;SDS011;11873;49.300;8.920;2023-06-24T14:41:07;2.57;;;2.37;;
23400;SDS011;11873;49.300;8.920;2023-06-24T14:46:07;2.70;;;2.50;;
23400;SDS011;11873;49.300;8.920;2023-06-24T14:51:07;3.10;;;2.80;;
23400;SDS011;11873;49.300;8.920;2023-06-24T14:56:07;3.23;;;2.57;;
23400;SDS011;11873;49.300;8.920;2023-06-24T15:01:08;3.40;;;2.70;;
23400;SDS011;11873;49.300;8.920;2023-06-24T15:06:08;3.23;;;2.93;;
23400;SDS011;11873;49.300;8.920;2023-06-24T15:11:08;5.17;;;3.30;;
23400;SDS011;11873;49.300;8.920;2023-06-24T15:16:08;3.30;;;3.00;;
23400;SDS011;11873;49.300;8.920;2023-06-24T15:21:08;4.67;;;3.03;;
23400;SDS011;11873;49.300;8.920;2023-06-24T15:26:08;3.20;;;2.50;;
23400;SDS011;11873;49.300;8.920;2023-06-24T15:31:09;2.83;;;2.53;;
23400;SDS011;11873;49.300;8.920;2023-06-24T15:36:09;2.90;;;2.70;;
23400;SDS011;11873;49.300;8.920;2023-06-24T15:41:09;3.63;;;3.00;;
23400;SDS011;11873;49.300;8.920;2023-06-24T15:46:09;3.80;;;3.10;;
23400;SDS011;11873;49.300;8.920;2023-06-24T15:51:09;3.30;;;3.00;;
23400;SDS011;11873;49.300;8.920;2023-06-24T15:56:09;3.20;;;2.90;;
23400;SDS011;11873;49.300;8.920;2023-06-24T16:01:10;3.33;;;2.70;;
23400;SDS011;11873;49.300;8.920;2023-06-24T16:06:10;3.40;;;2.87;;
23400;SDS011;11873;49.300;8.920;2023-06-24T16:11:10;3.23;;;2.93;;
23400;SDS011;11873;49.300;8.920;2023-06-24T16:16:10;3.00;;;2.70;;
23400;SDS011;11873;49.300;8.920;2023-06-24T16:21:10;2.57;;;2.37;;
23400;SDS011;11873;49.300;8.920;2023-06-24T16:26:10;3.40;;;3.10;;
23400;SDS011;11873;49.300;8.920;2023-06-24T16:31:11;3.17;;;2.97;;
23400;SDS011;11873;49.300;8.920;2023-06-24T16:36:11;3.00;;;2.70;;
23400;SDS011;11873;49.300;8.920;2023-06-24T16:41:11;2.73;;;2.53;;
23400;SDS011;11873;49.300;8.920;2023-06-24T16:46:11;2.97;;;2.77;;
23400;SDS011;11873;49.300;8.920;2023-06-24T16:51:11;2.70;;;2.50;;
23400;SDS011;11873;49.300;8.920;2023-06-24T16:56:11;2.77;;;2.43;;
23400;SDS011;11873;49.300;8.920;2023-06-24T17:01:12;2.80;;;2.60;;
23400;SDS011;11873;49.300;8.920;2023-06-24T17:06:12;2.30;;;2.10;;
23400;SDS011;11873;49.300;8.920;2023-06-24T17:11:12;2.53;;;2.33;;
23400;SDS011;11873;49.300;8.920;2023-06-24T17:16:12;2.70;;;2.50;;
23400;SDS011;11873;49.300;8.920;2023-06-24T17:21:12;4.50;;;2.80;;
23400;SDS011;11873;49.300;8.920;2023-06-24T17:26:13;2.50;;;2.30;;
23400;SDS011;11873;49.300;8.920;2023-06-24T17:31:13;7.97;;;3.83;;
23400;SDS011;11873;49.300;8.920;2023-06-24T17:36:13;2.73;;;2.53;;
23400;SDS011;11873;49.300;8.920;2023-06-24T17:41:13;6.53;;;2.80;;
23400;SDS011;11873;49.300;8.920;2023-06-24T17:46:13;2.90;;;2.70;;
23400;SDS011;11873;49.300;8.920;2023-06-24T17:51:13;2.50;;;2.30;;
23400;SDS011;11873;49.300;8.920;2023-06-24T17:56:14;3.23;;;2.83;;
23400;SDS011;11873;49.300;8.920;2023-06-24T18:01:14;4.87;;;2.47;;
23400;SDS011;11873;49.300;8.920;2023-06-24T18:06:14;4.20;;;2.30;;
23400;SDS011;11873;49.300;8.920;2023-06-24T18:11:14;2.70;;;2.50;;
23400;SDS011;11873;49.300;8.920;2023-06-24T18:16:14;2.77;;;2.30;;
23400;SDS011;11873;49.300;8.920;2023-06-24T18:21:14;3.03;;;2.63;;
23400;SDS011;11873;49.300;8.920;2023-06-24T18:26:15;3.80;;;2.50;;
23400;SDS011;11873;49.300;8.920;2023-06-24T18:31:15;4.93;;;2.83;;
23400;SDS011;11873;49.300;8.920;2023-06-24T18:36:15;3.07;;;2.30;;
23400;SDS011;11873;49.300;8.920;2023-06-24T18:41:15;2.57;;;2.37;;
23400;SDS011;11873;49.300;8.920;2023-06-24T18:46:15;2.33;;;2.17;;
23400;SDS011;11873;49.300;8.920;2023-06-24T18:51:16;3.00;;;2.33;;
23400;SDS011;11873;49.300;8.920;2023-06-24T18:56:16;2.93;;;2.73;;
23400;SDS011;11873;49.300;8.920;2023-06-24T19:01:17;3.30;;;3.00;;
23400;SDS011;11873;49.300;8.920;2023-06-24T19:06:17;2.80;;;2.53;;
23400;SDS011;11873;49.300;8.920;2023-06-24T19:11:18;3.63;;;2.60;;
23400;SDS011;11873;49.300;8.920;2023-06-24T19:16:18;3.57;;;2.70;;
23400;SDS011;11873;49.300;8.920;2023-06-24T19:21:18;2.50;;;2.30;;
23400;SDS011;11873;49.300;8.920;2023-06-24T19:26:19;2.57;;;2.37;;
23400;SDS011;11873;49.300;8.920;2023-06-24T19:31:19;2.93;;;2.63;;
23400;SDS011;11873;49.300;8.920;2023-06-24T19:36:19;3.70;;;3.17;;
23400;SDS011;11873;49.300;8.920;2023-06-24T19:41:19;3.50;;;3.10;;
23400;SDS011;11873;49.300;8.920;2023-06-24T19:46:19;3.77;;;2.83;;
23400;SDS011;11873;49.300;8.920;2023-06-24T19:51:20;2.73;;;2.53;;
23400;SDS011;11873;49.300;8.920;2023-06-24T19:56:20;3.20;;;3.00;;
23400;SDS011;11873;49.300;8.920;2023-06-24T20:01:20;5.30;;;3.00;;
23400;SDS011;11873;49.300;8.920;2023-06-24T20:06:20;6.27;;;3.37;;
23400;SDS011;11873;49.300;8.920;2023-06-24T20:11:20;3.27;;;2.97;;
23400;SDS011;11873;49.300;8.920;2023-06-24T20:16:22;3.67;;;2.93;;
23400;SDS011;11873;49.300;8.920;2023-06-24T20:21:22;4.20;;;2.80;;
23400;SDS011;11873;49.300;8.920;2023-06-24T20:26:23;3.77;;;3.47;;
23400;SDS011;11873;49.300;8.920;2023-06-24T20:31:23;3.27;;;2.97;;
23400;SDS011;11873;49.300;8.920;2023-06-24T20:36:23;3.60;;;3.30;;
23400;SDS011;11873;49.300;8.920;2023-06-24T20:41:23;3.00;;;2.80;;
23400;SDS011;11873;49.300;8.920;2023-06-24T20:46:24;3.73;;;3.17;;
23400;SDS011;11873;49.300;8.920;2023-06-24T20:51:24;3.50;;;3.20;;
23400;SDS011;11873;49.300;8.920;2023-06-24T20:56:24;4.67;;;3.50;;
23400;SDS011;11873;49.300;8.920;2023-06-24T21:01:24;3.37;;;3.07;;
23400;SDS011;11873;49.300;8.920;2023-06-24T21:06:24;3.70;;;3.37;;
23400;SDS011;11873;49.300;8.920;2023-06-24T21:11:25;3.87;;;3.47;;
23400;SDS011;11873;49.300;8.920;2023-06-24T21:16:25;3.47;;;3.17;;
23400;SDS011;11873;49.300;8.920;2023-06-24T21:21:25;3.27;;;2.97;;
23400;SDS011;11873;49.300;8.920;2023-06-24T21:26:25;3.67;;;3.37;;
23400;SDS011;11873;49.300;8.920;2023-06-24T21:31:25;4.17;;;3.77;;
23400;SDS011;11873;49.300;8.920;2023-06-24T21:36:25;3.33;;;3.03;;
23400;SDS011;11873;49.300;8.920;2023-06-24T21:41:26;3.47;;;3.17;;
23400;SDS011;11873;49.300;8.920;2023-06-24T21:46:26;3.77;;;3.47;;
23400;SDS011;11873;49.300;8.920;2023-06-24T21:51:26;3.77;;;3.47;;
23400;SDS011;11873;49.300;8.920;2023-06-24T21:56:26;4.00;;;3.10;;
23400;SDS011;11873;49.300;8.920;2023-06-24T22:01:26;4.40;;;3.63;;
23400;SDS011;11873;49.300;8.920;2023-06-24T22:06:26;4.43;;;3.33;;
23400;SDS011;11873;49.300;8.920;2023-06-24T22:11:27;6.03;;;3.87;;
23400;SDS011;11873;49.300;8.920;2023-06-24T22:16:27;4.10;;;3.60;;
23400;SDS011;11873;49.300;8.920;2023-06-24T22:21:27;3.43;;;3.00;;
23400;SDS011;11873;49.300;8.920;2023-06-24T22:26:27;3.67;;;3.37;;
23400;SDS011;11873;49.300;8.920;2023-06-24T22:31:27;4.03;;;3.63;;
23400;SDS011;11873;49.300;8.920;2023-06-24T22:36:27;3.43;;;3.13;;
23400;SDS011;11873;49.300;8.920;2023-06-24T22:41:28;4.23;;;3.60;;
23400;SDS011;11873;49.300;8.920;2023-06-24T22:46:28;3.57;;;3.23;;
23400;SDS011;11873;49.300;8.920;2023-06-24T22:51:28;3.20;;;2.93;;
23400;SDS011;11873;49.300;8.920;2023-06-24T22:56:28;3.90;;;3.53;;
23400;SDS011;11873;49.300;8.920;2023-06-24T23:01:28;5.17;;;3.90;;
23400;SDS011;11873;49.300;8.920;2023-06-24T23:06:29;4.33;;;3.93;;
23400;SDS011;11873;49.300;8.920;2023-06-24T23:11:29;6.73;;;3.47;;
23400;SDS011;11873;49.300;8.920;2023-06-24T23:16:29;3.70;;;3.40;;
23400;SDS011;11873;49.300;8.920;2023-06-24T23:21:30;3.93;;;3.53;;
23400;SDS011;11873;49.300;8.920;2023-06-24T23:26:30;3.50;;;3.20;;
23400;SDS011;11873;49.300;8.920;2023-06-24T23:31:32;4.10;;;3.70;;
23400;SDS011;11873;49.300;8.920;2023-06-24T23:36:32;3.73;;;3.43;;
23400;SDS011;11873;49.300;8.920;2023-06-24T23:41:33;4.40;;;3.83;;
23400;SDS011;11873;49.300;8.920;2023-06-24T23:46:33;3.62;;;3.28;;
23400;SDS011;11873;49.300;8.920;2023-06-24T23:51:33;5.53;;;3.57;;
23400;SDS011;11873;49.300;8.920;2023-06-24T23:56:33;3.60;;;3.30;;
